Time;durP1;ratioP1;P1;durP2;ratioP2;P2;SDS_P1;SDS_P2;PMS_P1;PMS_P2;Temp;Humidity;BMP_temperature;BMP_pressure;BME280_temperature;BME280_humidity;BME280_pressure;Samples;Min_cycle;Max_cycle;Signal;HPM_P1;HPM_P2
2021/12/07 00:01:30;;;;;;;14.70;13.45;;;2.30;99.90;;;;;;5088633;28;20250;-61
2021/12/07 00:03:58;;;;;;;15.93;14.32;;;2.30;99.90;;;;;;5083683;28;20183;-60
2021/12/07 00:06:26;;;;;;;15.40;13.98;;;2.30;99.90;;;;;;5092248;28;20234;-62
2021/12/07 00:08:56;;;;;;;13.57;12.40;;;2.30;99.90;;;;;;5090981;28;20680;-61
2021/12/07 00:11:26;;;;;;;14.13;13.00;;;2.30;99.90;;;;;;5086772;28;20304;-61
2021/12/07 00:13:56;;;;;;;14.02;12.75;;;2.30;99.90;;;;;;5086659;28;20223;-62
2021/12/07 00:16:26;;;;;;;13.38;12.18;;;2.40;99.90;;;;;;5085167;28;20233;-61
2021/12/07 00:18:55;;;;;;;11.85;10.90;;;2.40;99.90;;;;;;5085595;28;20287;-61
2021/12/07 00:21:23;;;;;;;13.80;12.50;;;2.40;99.90;;;;;;5084653;28;20314;-61
2021/12/07 00:23:51;;;;;;;14.18;12.98;;;2.30;99.90;;;;;;5088690;28;20195;-61
2021/12/07 00:26:38;;;;;;;12.95;11.73;;;2.40;99.90;;;;;;5082844;28;20200;-62
2021/12/07 00:29:08;;;;;;;14.05;12.65;;;2.30;99.90;;;;;;5092638;28;20679;-62
2021/12/07 00:31:40;;;;;;;13.98;12.70;;;2.40;99.90;;;;;;5092790;28;20275;-60
2021/12/07 00:34:16;;;;;;;14.18;12.73;;;2.30;99.90;;;;;;5086281;28;20727;-61
2021/12/07 00:36:48;;;;;;;13.73;12.32;;;2.30;99.90;;;;;;5092623;28;20261;-61
2021/12/07 00:39:18;;;;;;;13.65;12.45;;;2.30;99.90;;;;;;5092613;28;20247;-62
2021/12/07 00:41:49;;;;;;;13.18;11.98;;;2.30;99.90;;;;;;5091934;28;20783;-61
2021/12/07 00:44:17;;;;;;;13.05;11.95;;;2.30;99.90;;;;;;5084345;28;20195;-61
2021/12/07 00:46:46;;;;;;;13.23;11.93;;;2.30;99.90;;;;;;5071389;28;20668;-62
2021/12/07 00:49:15;;;;;;;12.65;11.55;;;2.20;99.90;;;;;;5071752;28;20230;-60
2021/12/07 00:51:44;;;;;;;13.23;11.50;;;2.20;99.90;;;;;;5071862;28;20243;-59
2021/12/07 00:54:13;;;;;;;12.93;11.85;;;2.10;99.90;;;;;;5090965;28;20253;-61
2021/12/07 00:56:41;;;;;;;12.85;11.65;;;2.10;99.90;;;;;;5092183;28;20580;-60
2021/12/07 00:59:10;;;;;;;12.73;11.52;;;2.10;99.90;;;;;;5091966;28;20226;-61
2021/12/07 01:01:38;;;;;;;14.05;12.48;;;2.00;99.90;;;;;;5092078;28;20253;-60
2021/12/07 01:04:07;;;;;;;12.90;11.80;;;1.90;99.90;;;;;;5092109;28;20216;-61
2021/12/07 01:06:46;;;;;;;13.43;12.23;;;1.90;99.90;;;;;;5092121;28;20191;-60
2021/12/07 01:09:21;;;;;;;14.60;13.20;;;1.80;99.90;;;;;;5091912;28;20190;-61
2021/12/07 01:25:47;;;;;;;17.02;15.63;;;1.60;99.90;;;;;;5122315;27;20197;-70
2021/12/07 01:28:23;;;;;;;17.65;16.08;;;1.60;99.90;;;;;;5132771;27;20665;-69
2021/12/07 01:30:57;;;;;;;17.23;15.75;;;1.60;99.90;;;;;;5091405;28;20625;-69
2021/12/07 01:33:43;;;;;;;16.25;14.85;;;1.50;99.90;;;;;;5093145;28;20856;-69
2021/12/07 01:36:33;;;;;;;15.45;14.15;;;1.50;99.90;;;;;;5099409;28;20237;-68
2021/12/07 01:45:00;;;;;;;18.48;16.88;;;1.40;99.90;;;;;;5107124;28;20224;-68
2021/12/07 01:47:42;;;;;;;17.98;16.23;;;1.40;99.90;;;;;;5107501;28;20197;-69
2021/12/07 02:01:12;;;;;;;19.13;17.33;;;1.40;99.90;;;;;;5106740;28;20690;-69
2021/12/07 02:03:42;;;;;;;18.48;16.95;;;1.50;99.90;;;;;;5110828;28;20193;-69
2021/12/07 02:06:12;;;;;;;16.88;15.45;;;1.50;99.90;;;;;;5105632;28;20233;-70
2021/12/07 02:08:40;;;;;;;17.13;15.70;;;1.50;99.90;;;;;;5103549;28;20252;-70
2021/12/07 02:11:08;;;;;;;18.83;16.90;;;1.60;99.90;;;;;;5112490;27;20660;-70
2021/12/07 02:16:24;;;;;;;17.40;15.80;;;1.80;99.90;;;;;;5100563;28;20198;-69
2021/12/07 02:18:53;;;;;;;16.35;14.95;;;1.80;99.90;;;;;;5106063;28;20662;-70
2021/12/07 02:21:25;;;;;;;15.02;13.82;;;1.90;99.90;;;;;;5103362;28;20222;-70
2021/12/07 02:23:54;;;;;;;16.70;15.20;;;1.90;99.90;;;;;;5104796;27;20600;-70
2021/12/07 02:26:22;;;;;;;16.30;14.90;;;2.00;99.90;;;;;;5115274;28;20193;-70
2021/12/07 02:28:52;;;;;;;14.23;13.02;;;2.10;99.90;;;;;;5106111;27;20199;-69
2021/12/07 02:31:21;;;;;;;17.00;15.35;;;2.00;99.90;;;;;;5105100;28;20219;-70
2021/12/07 02:33:49;;;;;;;14.88;13.48;;;2.10;99.90;;;;;;5106532;28;20247;-70
2021/12/07 02:36:17;;;;;;;15.20;13.90;;;2.10;99.90;;;;;;5105538;28;20312;-70
2021/12/07 02:38:47;;;;;;;13.30;12.30;;;2.20;99.90;;;;;;5103128;28;20655;-70
2021/12/07 02:41:15;;;;;;;16.13;14.48;;;2.20;99.90;;;;;;5096974;28;20226;-71
2021/12/07 02:43:44;;;;;;;14.30;13.05;;;2.20;99.90;;;;;;5106810;27;20251;-70
2021/12/07 02:46:12;;;;;;;12.80;11.65;;;2.20;99.90;;;;;;5115234;28;20234;-70
2021/12/07 02:48:40;;;;;;;12.80;11.65;;;2.30;99.90;;;;;;5114927;28;20200;-70
2021/12/07 02:51:08;;;;;;;11.93;10.82;;;2.30;99.90;;;;;;5114667;28;20218;-70
2021/12/07 02:53:37;;;;;;;10.73;9.82;;;2.40;99.90;;;;;;5114790;28;20214;-70
2021/12/07 02:56:08;;;;;;;10.63;9.70;;;2.40;99.90;;;;;;5114935;28;20697;-70
2021/12/07 02:58:40;;;;;;;10.40;9.60;;;2.50;99.90;;;;;;5130908;27;20228;-71
2021/12/07 03:01:15;;;;;;;10.30;9.40;;;2.50;99.90;;;;;;5135203;27;20244;-69
2021/12/07 03:03:54;;;;;;;10.50;9.70;;;2.40;99.90;;;;;;5135543;27;20620;-70
2021/12/07 03:06:29;;;;;;;9.60;8.80;;;2.50;99.90;;;;;;5135400;27;20200;-69
2021/12/07 03:09:36;;;;;;;8.07;7.50;;;2.50;99.90;;;;;;5134023;27;20220;-72
2021/12/07 03:26:02;;;;;;;8.07;7.45;;;2.50;99.90;;;;;;5114519;28;20194;-69
2021/12/07 03:28:34;;;;;;;9.68;8.88;;;2.50;99.90;;;;;;5114345;27;20259;-69
2021/12/07 03:31:03;;;;;;;9.45;8.75;;;2.50;99.90;;;;;;5107777;28;20226;-72
2021/12/07 03:33:32;;;;;;;10.38;9.57;;;2.60;99.90;;;;;;5094037;28;20624;-69
2021/12/07 03:36:01;;;;;;;11.93;11.02;;;2.50;99.90;;;;;;5093762;28;20218;-70
2021/12/07 03:38:29;;;;;;;11.82;10.93;;;2.50;99.90;;;;;;5103270;28;20240;-69
2021/12/07 03:40:57;;;;;;;11.18;10.18;;;2.50;99.90;;;;;;5112778;28;20221;-69
2021/12/07 03:43:25;;;;;;;14.18;12.80;;;2.60;99.90;;;;;;5105082;28;20247;-69
2021/12/07 03:45:55;;;;;;;12.70;11.43;;;2.50;99.90;;;;;;5102424;28;20225;-72
2021/12/07 03:48:23;;;;;;;11.15;10.13;;;2.40;99.90;;;;;;5101600;28;20212;-71
2021/12/07 03:50:51;;;;;;;11.80;10.70;;;2.50;99.90;;;;;;5106349;28;20225;-72
2021/12/07 03:53:19;;;;;;;12.05;10.95;;;2.50;99.90;;;;;;5112356;28;20232;-71
2021/12/07 03:55:47;;;;;;;11.65;10.60;;;2.50;99.90;;;;;;5110080;27;20246;-71
2021/12/07 03:58:15;;;;;;;11.38;10.43;;;2.50;99.90;;;;;;5116813;27;20233;-71
2021/12/07 04:00:46;;;;;;;11.13;10.02;;;2.50;99.90;;;;;;5113031;28;20226;-72
2021/12/07 04:03:18;;;;;;;11.68;10.60;;;2.50;99.90;;;;;;5113895;28;20198;-71
2021/12/07 04:05:50;;;;;;;12.07;10.93;;;2.50;99.90;;;;;;5113505;28;20218;-70
2021/12/07 04:08:20;;;;;;;11.00;10.10;;;2.50;99.90;;;;;;5113678;28;20221;-72
2021/12/07 04:10:48;;;;;;;12.25;11.05;;;2.50;99.90;;;;;;5113111;28;20281;-70
2021/12/07 04:13:17;;;;;;;11.70;10.60;;;2.50;99.90;;;;;;5111858;27;20198;-69
2021/12/07 04:15:44;;;;;;;12.27;10.65;;;2.50;99.90;;;;;;5110384;28;20326;-69
2021/12/07 04:18:13;;;;;;;9.43;8.52;;;2.50;99.90;;;;;;5105392;28;20718;-69
2021/12/07 04:20:42;;;;;;;10.23;8.65;;;2.50;99.90;;;;;;5112464;28;20678;-70
2021/12/07 04:23:10;;;;;;;12.18;7.60;;;2.60;99.90;;;;;;5113366;28;20233;-70
2021/12/07 04:25:38;;;;;;;10.70;6.70;;;2.60;99.90;;;;;;5115265;27;20274;-70
2021/12/07 04:28:06;;;;;;;9.00;6.70;;;2.70;99.90;;;;;;5133936;27;20268;-71
2021/12/07 04:30:37;;;;;;;8.25;4.60;;;2.70;99.90;;;;;;5133173;27;20653;-71
2021/12/07 04:33:07;;;;;;;6.00;4.75;;;2.80;99.90;;;;;;5133686;27;20245;-71
2021/12/07 04:35:43;;;;;;;9.38;4.80;;;2.90;99.90;;;;;;5133683;27;20241;-70
2021/12/07 04:38:11;;;;;;;7.22;3.92;;;2.90;99.90;;;;;;5133708;27;20193;-71
2021/12/07 04:40:39;;;;;;;6.82;3.80;;;3.00;99.90;;;;;;5133072;27;20220;-72
2021/12/07 04:43:07;;;;;;;7.90;3.60;;;3.00;99.90;;;;;;5127200;27;20210;-70
2021/12/07 04:45:48;;;;;;;6.38;3.40;;;3.10;99.90;;;;;;5104302;28;20606;-70
2021/12/07 04:48:51;;;;;;;8.85;4.07;;;3.10;99.90;;;;;;5114335;28;20193;-70
2021/12/07 04:59:39;;;;;;;8.63;3.55;;;3.20;99.90;;;;;;5110678;28;20197;-71
2021/12/07 05:02:07;;;;;;;10.48;3.35;;;3.30;99.90;;;;;;5117961;27;20740;-71
2021/12/07 05:04:37;;;;;;;9.32;3.70;;;3.30;99.90;;;;;;5115000;27;20198;-71
2021/12/07 05:07:12;;;;;;;8.63;4.05;;;3.30;99.90;;;;;;5105851;28;20182;-71
2021/12/07 05:12:33;;;;;;;9.55;3.53;;;3.40;99.90;;;;;;5105729;28;20269;-71
2021/12/07 05:15:07;;;;;;;12.02;3.75;;;3.40;99.90;;;;;;5112463;28;20242;-71
2021/12/07 05:34:40;;;;;;;7.78;4.00;;;3.40;99.90;;;;;;5112429;28;20194;-71
2021/12/07 05:40:08;;;;;;;11.00;3.70;;;3.50;99.90;;;;;;5091616;28;20237;-71
2021/12/07 05:42:37;;;;;;;9.75;3.47;;;3.50;99.90;;;;;;5094058;28;20709;-69
2021/12/07 05:45:07;;;;;;;10.20;3.13;;;3.50;99.90;;;;;;5111736;28;20725;-72
2021/12/07 05:47:35;;;;;;;7.97;3.50;;;3.50;99.90;;;;;;5096830;28;20203;-70
2021/12/07 05:50:04;;;;;;;9.55;3.35;;;3.50;99.90;;;;;;5103228;28;20196;-70
2021/12/07 05:52:32;;;;;;;14.73;3.58;;;3.50;99.90;;;;;;5105039;28;20308;-70
2021/12/07 05:55:00;;;;;;;13.25;3.70;;;3.60;99.90;;;;;;5096172;28;20233;-71
2021/12/07 05:57:29;;;;;;;6.30;2.80;;;3.50;99.90;;;;;;5101609;28;20221;-73
2021/12/07 05:59:57;;;;;;;7.22;3.30;;;3.50;99.90;;;;;;5105338;28;20221;-70
2021/12/07 06:02:25;;;;;;;10.73;4.60;;;3.50;99.90;;;;;;5095561;28;20773;-70
2021/12/07 06:04:53;;;;;;;10.82;3.70;;;3.50;99.90;;;;;;5097145;28;20244;-70
2021/12/07 06:07:21;;;;;;;12.23;3.75;;;3.50;99.90;;;;;;5095853;28;20752;-69
2021/12/07 06:09:49;;;;;;;9.48;3.88;;;3.40;99.90;;;;;;5105095;28;20277;-71
2021/12/07 06:12:17;;;;;;;8.73;3.53;;;3.40;99.90;;;;;;5098261;28;20261;-73
2021/12/07 06:14:46;;;;;;;12.75;4.00;;;3.50;99.90;;;;;;5098507;28;20232;-71
2021/12/07 06:17:14;;;;;;;8.40;3.55;;;3.40;99.90;;;;;;5095788;28;20305;-69
2021/12/07 06:19:42;;;;;;;8.40;4.72;;;3.40;99.90;;;;;;5086085;28;20237;-69
2021/12/07 06:22:10;;;;;;;11.93;4.30;;;3.40;99.90;;;;;;5092790;28;20309;-72
2021/12/07 06:24:38;;;;;;;9.73;4.88;;;3.30;99.90;;;;;;5095114;28;20298;-71
2021/12/07 06:27:06;;;;;;;9.48;4.20;;;3.30;99.90;;;;;;5085712;28;20214;-70
2021/12/07 06:29:34;;;;;;;9.15;4.88;;;3.30;99.90;;;;;;5085608;28;20353;-69
2021/12/07 06:32:04;;;;;;;8.45;5.13;;;3.30;99.90;;;;;;5090832;28;20231;-70
2021/12/07 06:34:32;;;;;;;14.70;4.60;;;3.20;99.90;;;;;;5085610;28;20203;-70
2021/12/07 06:37:01;;;;;;;15.57;5.57;;;3.20;99.90;;;;;;5092687;28;20211;-70
2021/12/07 06:39:30;;;;;;;11.35;5.10;;;3.20;99.90;;;;;;5102371;28;20236;-69
2021/12/07 06:41:58;;;;;;;6.40;4.25;;;3.20;99.90;;;;;;5106238;28;20213;-69
2021/12/07 06:44:25;;;;;;;7.72;4.03;;;3.20;99.90;;;;;;5108493;28;20202;-70
2021/12/07 06:46:53;;;;;;;9.05;5.43;;;3.10;99.90;;;;;;5108895;28;20278;-70
2021/12/07 06:49:23;;;;;;;10.38;4.78;;;3.10;99.90;;;;;;5109195;28;20210;-72
2021/12/07 06:51:51;;;;;;;14.50;5.55;;;3.10;99.90;;;;;;5101586;28;20250;-72
2021/12/07 06:54:20;;;;;;;14.00;5.70;;;3.20;99.90;;;;;;5109581;28;20247;-70
2021/12/07 06:56:48;;;;;;;10.75;5.38;;;3.20;99.90;;;;;;5107402;27;20226;-71
2021/12/07 06:59:16;;;;;;;10.85;5.85;;;3.20;99.90;;;;;;5109454;28;20197;-73
2021/12/07 07:01:44;;;;;;;12.27;6.40;;;3.20;99.90;;;;;;5109436;28;20237;-70
2021/12/07 07:04:14;;;;;;;12.73;6.50;;;3.20;99.90;;;;;;5109465;28;20711;-70
2021/12/07 07:06:44;;;;;;;10.73;6.15;;;3.20;99.90;;;;;;5107136;28;20190;-70
2021/12/07 07:09:12;;;;;;;13.00;6.78;;;3.20;99.90;;;;;;5109438;28;20689;-70
2021/12/07 07:11:41;;;;;;;13.82;6.50;;;3.20;99.90;;;;;;5126879;22;20328;-64
2021/12/07 07:14:09;;;;;;;14.63;7.03;;;3.20;99.90;;;;;;5076165;28;20284;-62
2021/12/07 07:16:38;;;;;;;14.02;5.15;;;3.20;99.90;;;;;;5075268;28;20607;-61
2021/12/07 07:19:06;;;;;;;10.82;5.80;;;3.20;99.90;;;;;;5078268;28;20199;-58
2021/12/07 07:21:34;;;;;;;11.07;5.38;;;3.30;99.90;;;;;;5077933;28;20279;-61
2021/12/07 07:24:04;;;;;;;12.18;5.30;;;3.30;99.90;;;;;;5065028;28;20219;-61
2021/12/07 07:26:32;;;;;;;9.40;5.68;;;3.20;99.90;;;;;;5070410;28;20267;-62
2021/12/07 07:29:00;;;;;;;9.85;5.13;;;3.20;99.90;;;;;;5074805;28;20642;-60
2021/12/07 07:31:28;;;;;;;15.23;7.93;;;3.20;99.90;;;;;;5056077;28;20632;-62
2021/12/07 07:33:56;;;;;;;20.20;13.18;;;3.20;99.90;;;;;;5052763;28;20287;-62
2021/12/07 07:36:24;;;;;;;18.50;13.57;;;3.30;99.90;;;;;;5053624;28;20688;-62
2021/12/07 07:38:52;;;;;;;10.50;7.70;;;3.30;99.90;;;;;;5053884;28;20784;-62
2021/12/07 07:41:21;;;;;;;7.95;5.90;;;3.30;99.90;;;;;;5054715;28;20298;-62
2021/12/07 07:43:49;;;;;;;9.95;5.00;;;3.30;99.90;;;;;;5067037;28;20254;-62
2021/12/07 07:46:17;;;;;;;9.50;4.90;;;3.40;99.90;;;;;;5070283;28;20238;-62
2021/12/07 07:48:45;;;;;;;7.55;4.10;;;3.40;99.90;;;;;;5073883;28;20656;-62
2021/12/07 07:51:14;;;;;;;11.32;4.75;;;3.30;99.90;;;;;;5073301;28;20302;-62
2021/12/07 07:53:42;;;;;;;5.85;4.18;;;3.30;99.90;;;;;;5073700;28;20250;-62
2021/12/07 07:56:10;;;;;;;13.85;5.30;;;3.40;99.90;;;;;;5072879;28;20294;-61
2021/12/07 07:58:39;;;;;;;8.65;5.10;;;3.30;99.90;;;;;;5073201;28;20297;-62
2021/12/07 08:01:07;;;;;;;11.82;6.03;;;3.30;99.90;;;;;;5073365;28;20683;-62
2021/12/07 08:03:36;;;;;;;12.30;5.78;;;3.30;99.90;;;;;;5073854;28;20243;-62
2021/12/07 08:06:04;;;;;;;12.73;5.90;;;3.30;99.90;;;;;;5073393;28;20252;-62
2021/12/07 08:08:32;;;;;;;15.57;6.03;;;3.40;99.90;;;;;;5073538;28;20191;-62
2021/12/07 08:11:01;;;;;;;11.23;5.32;;;3.40;99.90;;;;;;5073675;28;20203;-62
2021/12/07 08:13:30;;;;;;;12.70;6.18;;;3.50;99.90;;;;;;5072258;28;20246;-62
2021/12/07 08:16:01;;;;;;;12.73;7.30;;;3.60;99.90;;;;;;5073265;28;20210;-61
2021/12/07 08:18:29;;;;;;;11.90;6.55;;;3.80;99.90;;;;;;5072946;28;20696;-62
2021/12/07 08:20:56;;;;;;;9.50;5.15;;;3.90;99.90;;;;;;5073085;28;20219;-62
2021/12/07 08:23:24;;;;;;;7.68;4.60;;;4.10;99.90;;;;;;5072809;28;20306;-63
2021/12/07 08:25:52;;;;;;;14.18;4.50;;;4.20;99.90;;;;;;5072686;28;20289;-63
2021/12/07 08:28:21;;;;;;;9.68;4.63;;;4.20;99.90;;;;;;5072730;28;20191;-62
2021/12/07 08:30:50;;;;;;;6.07;4.25;;;4.20;99.90;;;;;;5071581;28;20282;-62
2021/12/07 08:33:20;;;;;;;10.00;4.78;;;4.30;99.90;;;;;;5072492;28;20791;-63
2021/12/07 08:35:48;;;;;;;9.75;3.65;;;4.30;99.90;;;;;;5072396;28;20667;-63
2021/12/07 08:38:17;;;;;;;6.75;3.58;;;4.30;99.90;;;;;;5072732;28;20705;-63
2021/12/07 08:40:46;;;;;;;12.35;3.35;;;4.30;99.90;;;;;;5072398;28;20644;-63
2021/12/07 08:43:14;;;;;;;10.88;4.07;;;4.30;99.90;;;;;;5071904;28;20230;-63
2021/12/07 08:45:43;;;;;;;5.75;3.30;;;4.60;99.90;;;;;;5066512;28;20191;-63
2021/12/07 08:48:11;;;;;;;5.55;2.65;;;5.00;99.90;;;;;;5072238;28;20544;-63
2021/12/07 08:50:41;;;;;;;5.78;2.65;;;5.50;99.90;;;;;;5071874;28;20223;-63
2021/12/07 08:53:12;;;;;;;10.23;3.10;;;5.90;99.90;;;;;;5072171;28;20219;-63
2021/12/07 09:01:14;;;;;;;10.30;2.30;;;6.20;99.90;;;;;;5071787;28;20663;-63
2021/12/07 09:03:42;;;;;;;8.27;3.13;;;6.00;99.90;;;;;;5071374;28;20199;-63
2021/12/07 09:06:12;;;;;;;3.67;2.25;;;5.90;99.90;;;;;;5070927;28;20227;-63
2021/12/07 09:08:41;;;;;;;4.60;2.63;;;5.60;99.90;;;;;;5071161;28;20689;-63
2021/12/07 09:11:10;;;;;;;9.50;3.95;;;5.50;99.90;;;;;;5071642;28;20648;-63
2021/12/07 09:13:39;;;;;;;9.98;3.60;;;5.30;99.90;;;;;;5062939;28;20231;-63
2021/12/07 09:16:08;;;;;;;6.75;3.72;;;5.20;99.90;;;;;;5056594;28;20258;-63
2021/12/07 09:18:36;;;;;;;9.82;3.67;;;5.10;99.90;;;;;;5051491;28;20208;-63
2021/12/07 09:21:05;;;;;;;7.57;3.33;;;5.10;99.90;;;;;;5065061;28;20234;-63
2021/12/07 09:23:35;;;;;;;6.47;4.10;;;5.10;99.90;;;;;;5071542;28;20751;-63
2021/12/07 09:26:05;;;;;;;8.07;3.15;;;5.10;99.90;;;;;;5071668;28;20197;-63
2021/12/07 09:28:35;;;;;;;10.77;3.40;;;5.10;99.90;;;;;;5071496;28;20660;-63
2021/12/07 09:31:05;;;;;;;9.57;3.53;;;5.10;99.90;;;;;;5071087;28;20610;-63
2021/12/07 09:33:33;;;;;;;6.50;3.92;;;5.10;99.90;;;;;;5071267;28;20247;-62
2021/12/07 09:36:03;;;;;;;6.75;3.15;;;5.20;99.90;;;;;;5071255;28;20199;-63
2021/12/07 09:38:31;;;;;;;8.13;3.40;;;5.20;99.90;;;;;;5070588;28;20215;-63
2021/12/07 09:41:01;;;;;;;16.58;3.40;;;5.20;99.90;;;;;;5053135;28;20203;-62
2021/12/07 09:43:30;;;;;;;6.28;2.70;;;5.20;99.90;;;;;;5062783;28;20700;-62
2021/12/07 09:45:59;;;;;;;4.75;2.70;;;5.20;99.90;;;;;;5057556;28;20201;-63
2021/12/07 09:48:28;;;;;;;8.75;3.90;;;5.20;99.90;;;;;;5051458;28;20206;-63
2021/12/07 09:50:56;;;;;;;6.53;2.90;;;5.20;99.90;;;;;;5051385;28;20245;-62
2021/12/07 09:53:26;;;;;;;8.48;3.20;;;5.20;99.90;;;;;;5067090;28;20585;-63
2021/12/07 09:56:00;;;;;;;7.97;2.80;;;5.30;99.90;;;;;;5070956;28;20605;-63
2021/12/07 09:58:29;;;;;;;7.43;3.88;;;5.30;99.90;;;;;;5071093;28;20269;-63
2021/12/07 10:00:58;;;;;;;6.18;2.42;;;5.30;99.90;;;;;;5071160;28;20196;-63
2021/12/07 10:03:26;;;;;;;8.50;3.17;;;5.20;99.90;;;;;;5071214;28;20214;-63
2021/12/07 10:05:55;;;;;;;5.63;2.80;;;5.30;99.90;;;;;;5071020;28;20198;-63
2021/12/07 10:08:23;;;;;;;6.15;2.63;;;5.30;99.90;;;;;;5070688;28;20242;-61
2021/12/07 10:10:55;;;;;;;8.85;3.35;;;5.20;99.90;;;;;;5070940;28;20378;-63
2021/12/07 10:13:27;;;;;;;6.03;2.38;;;5.30;99.90;;;;;;5069329;28;20650;-62
2021/12/07 10:16:03;;;;;;;5.30;2.80;;;5.20;99.90;;;;;;5064455;28;20203;-62
2021/12/07 10:18:33;;;;;;;7.63;3.08;;;5.20;99.90;;;;;;5063759;28;20622;-62
2021/12/07 10:21:14;;;;;;;9.07;3.03;;;5.20;99.90;;;;;;5075236;28;20202;-63
2021/12/07 10:23:44;;;;;;;8.40;3.00;;;5.30;99.90;;;;;;5075359;28;20655;-62
2021/12/07 10:26:16;;;;;;;10.45;3.25;;;5.30;99.90;;;;;;5074475;28;20289;-63
2021/12/07 10:28:47;;;;;;;7.90;2.50;;;5.30;99.90;;;;;;5075289;28;20187;-62
2021/12/07 10:31:21;;;;;;;6.03;2.22;;;5.30;99.90;;;;;;5074723;28;20242;-62
2021/12/07 10:33:52;;;;;;;6.65;2.53;;;5.30;99.90;;;;;;5075287;28;20199;-62
2021/12/07 10:36:25;;;;;;;7.20;2.10;;;5.30;99.90;;;;;;5075084;28;20195;-63
2021/12/07 10:38:57;;;;;;;4.82;2.30;;;5.30;99.90;;;;;;5074876;28;20778;-63
2021/12/07 10:41:26;;;;;;;4.35;1.88;;;5.40;99.90;;;;;;5074478;28;20195;-63
2021/12/07 10:44:00;;;;;;;4.25;2.30;;;5.50;99.90;;;;;;5074007;28;20532;-63
2021/12/07 10:46:36;;;;;;;7.72;2.85;;;5.40;99.90;;;;;;5066231;28;20226;-63
2021/12/07 10:49:30;;;;;;;6.10;2.60;;;5.40;99.90;;;;;;5074732;28;20668;-63
2021/12/07 10:52:02;;;;;;;10.07;3.53;;;5.40;99.90;;;;;;5074168;28;20310;-63
2021/12/07 10:54:34;;;;;;;8.95;2.13;;;5.50;99.90;;;;;;5074478;28;20199;-62
2021/12/07 10:57:08;;;;;;;4.88;2.90;;;5.50;99.90;;;;;;5073900;28;20230;-62
2021/12/07 10:59:37;;;;;;;5.60;2.00;;;5.50;99.90;;;;;;5074225;28;20214;-63
2021/12/07 11:02:15;;;;;;;6.85;2.25;;;5.60;99.90;;;;;;5074116;28;20642;-62
2021/12/07 11:04:45;;;;;;;5.90;2.25;;;5.60;99.90;;;;;;5074264;28;20187;-63
2021/12/07 11:07:17;;;;;;;6.97;2.20;;;5.80;99.90;;;;;;5074237;28;20195;-63
2021/12/07 11:10:01;;;;;;;8.40;2.97;;;5.80;99.90;;;;;;5074187;28;20208;-63
2021/12/07 11:12:36;;;;;;;7.40;3.33;;;6.00;99.90;;;;;;5073700;28;20238;-63
2021/12/07 11:15:12;;;;;;;3.80;2.40;;;6.20;99.90;;;;;;5073589;28;20233;-62
2021/12/07 11:17:42;;;;;;;6.82;2.67;;;6.40;99.90;;;;;;5074087;28;20195;-63
2021/12/07 11:20:12;;;;;;;8.52;2.00;;;6.40;99.90;;;;;;5074139;28;20243;-62
2021/12/07 11:22:44;;;;;;;8.23;2.67;;;6.40;99.90;;;;;;5073523;28;20211;-62
2021/12/07 11:25:31;;;;;;;11.07;2.75;;;6.50;99.90;;;;;;5073787;28;20231;-62
2021/12/07 11:30:45;;;;;;;7.75;2.10;;;7.70;99.90;;;;;;5072750;28;20226;-63
2021/12/07 11:33:23;;;;;;;5.05;2.20;;;8.60;99.90;;;;;;5073489;28;20581;-63
2021/12/07 11:35:51;;;;;;;8.52;1.90;;;9.10;99.90;;;;;;5073656;28;20238;-63
2021/12/07 11:38:30;;;;;;;5.20;2.20;;;9.50;99.90;;;;;;5068630;28;20203;-62
2021/12/07 11:41:14;;;;;;;8.07;2.40;;;10.00;99.90;;;;;;5053559;28;20223;-63
2021/12/07 11:43:51;;;;;;;4.03;1.55;;;9.90;99.90;;;;;;5064555;28;20699;-63
2021/12/07 11:46:20;;;;;;;9.80;3.08;;;9.80;99.90;;;;;;5065216;28;20728;-63
2021/12/07 11:48:50;;;;;;;7.18;2.20;;;9.90;99.90;;;;;;5073668;28;20244;-63
2021/12/07 11:51:18;;;;;;;5.05;1.80;;;9.70;99.90;;;;;;5073330;28;20198;-62
2021/12/07 11:53:48;;;;;;;10.68;1.92;;;9.70;99.90;;;;;;5072989;28;20278;-63
2021/12/07 11:56:16;;;;;;;4.97;1.73;;;9.80;99.90;;;;;;5073386;28;20257;-63
2021/12/07 11:58:44;;;;;;;4.13;1.40;;;9.60;99.90;;;;;;5073185;28;20235;-63
2021/12/07 12:01:32;;;;;;;4.75;1.80;;;9.70;99.90;;;;;;5073091;28;20286;-63
2021/12/07 12:04:02;;;;;;;5.97;2.00;;;9.70;99.90;;;;;;5073392;28;20199;-63
2021/12/07 12:06:31;;;;;;;5.82;1.73;;;9.70;99.90;;;;;;5073342;28;20640;-62
2021/12/07 12:09:00;;;;;;;4.20;1.55;;;9.60;99.90;;;;;;5073023;28;20680;-62
2021/12/07 12:11:38;;;;;;;5.65;1.40;;;9.20;99.90;;;;;;5072141;28;20639;-63
2021/12/07 12:14:21;;;;;;;4.43;1.90;;;8.50;99.90;;;;;;5072859;28;20255;-63
2021/12/07 12:16:59;;;;;;;6.35;1.60;;;8.10;99.90;;;;;;5065220;28;20217;-63
2021/12/07 12:19:40;;;;;;;5.03;2.05;;;7.60;99.90;;;;;;5073176;28;20314;-63
2021/12/07 12:22:14;;;;;;;9.00;2.47;;;7.40;99.90;;;;;;5072244;28;20247;-63
2021/12/07 12:24:48;;;;;;;5.18;1.70;;;7.30;99.90;;;;;;5072828;28;20273;-63
2021/12/07 12:27:18;;;;;;;5.68;1.52;;;7.20;99.90;;;;;;5072452;28;20219;-63
2021/12/07 12:29:49;;;;;;;5.60;1.90;;;7.20;99.90;;;;;;5072623;28;20727;-62
2021/12/07 12:32:27;;;;;;;3.53;1.25;;;7.10;99.90;;;;;;5072141;28;20245;-61
2021/12/07 12:34:57;;;;;;;4.30;1.65;;;7.20;99.90;;;;;;5072790;28;20278;-62
2021/12/07 12:37:27;;;;;;;7.03;1.77;;;7.20;99.90;;;;;;5072911;28;20237;-62
2021/12/07 12:39:58;;;;;;;6.55;2.15;;;7.10;99.90;;;;;;5072164;28;20222;-63
2021/12/07 12:42:35;;;;;;;7.65;2.00;;;7.20;99.90;;;;;;5071608;28;21081;-63
2021/12/07 12:45:18;;;;;;;5.00;2.42;;;7.10;99.90;;;;;;5066019;28;20188;-62
2021/12/07 12:47:47;;;;;;;6.65;2.95;;;7.00;99.90;;;;;;5052866;28;20250;-63
2021/12/07 12:50:20;;;;;;;7.60;2.42;;;7.00;99.90;;;;;;5052270;28;20277;-63
2021/12/07 12:52:50;;;;;;;2.95;2.00;;;7.00;99.90;;;;;;5052938;28;20212;-62
2021/12/07 12:55:44;;;;;;;9.75;2.90;;;6.80;99.90;;;;;;5061281;28;20727;-62
2021/12/07 12:58:20;;;;;;;8.60;2.10;;;6.50;99.90;;;;;;5039373;28;20251;-62
2021/12/07 13:01:05;;;;;;;7.28;1.80;;;6.50;99.90;;;;;;5053148;28;20643;-62
2021/12/07 13:03:59;;;;;;;5.32;3.10;;;6.40;99.90;;;;;;5052768;28;20687;-63
2021/12/07 13:06:53;;;;;;;10.60;3.72;;;6.40;99.90;;;;;;5052566;28;20234;-63
2021/12/07 13:09:29;;;;;;;9.38;4.00;;;6.50;99.90;;;;;;5064548;28;20211;-63
2021/12/07 13:12:03;;;;;;;6.63;3.10;;;6.50;99.90;;;;;;5095884;22;20329;31
2021/12/07 13:14:39;;;;;;;6.85;3.67;;;6.30;99.90;;;;;;5029347;28;20247;-69
2021/12/07 13:17:16;;;;;;;4.75;2.17;;;6.20;99.90;;;;;;5031298;28;20228;-70
2021/12/07 13:20:09;;;;;;;3.85;2.65;;;6.20;99.90;;;;;;5031678;28;20196;-68
2021/12/07 13:22:43;;;;;;;7.80;2.47;;;6.20;99.90;;;;;;5037270;28;20251;-69
2021/12/07 13:25:14;;;;;;;4.40;2.10;;;6.20;99.90;;;;;;5051798;28;20212;-67
2021/12/07 13:28:07;;;;;;;6.75;1.85;;;6.20;99.90;;;;;;5051975;28;20687;-67
2021/12/07 13:30:38;;;;;;;3.10;1.52;;;6.10;99.90;;;;;;5051405;28;20223;-69
2021/12/07 13:33:13;;;;;;;4.47;2.13;;;6.10;99.90;;;;;;5051313;28;20227;-70
2021/12/07 13:35:42;;;;;;;7.07;1.83;;;6.10;99.90;;;;;;5051613;28;20246;-70
2021/12/07 13:38:18;;;;;;;8.40;2.63;;;6.10;99.90;;;;;;5051410;28;20680;-70
2021/12/07 13:40:48;;;;;;;8.73;2.42;;;6.10;99.90;;;;;;5051215;28;20212;-70
2021/12/07 13:43:34;;;;;;;7.93;1.98;;;6.10;99.90;;;;;;5050408;28;20299;-70
2021/12/07 13:46:14;;;;;;;6.00;1.80;;;6.10;99.90;;;;;;5045441;28;20238;-69
2021/12/07 13:48:44;;;;;;;5.93;2.65;;;6.10;99.90;;;;;;5051492;28;20644;-70
2021/12/07 13:51:14;;;;;;;6.45;2.45;;;6.00;99.90;;;;;;5050920;28;20234;-70
2021/12/07 13:53:49;;;;;;;8.55;2.70;;;6.00;99.90;;;;;;5050517;28;20215;-70
2021/12/07 13:56:17;;;;;;;5.13;2.10;;;6.00;99.90;;;;;;5051443;28;20253;-69
2021/12/07 13:58:55;;;;;;;7.55;3.38;;;6.00;99.90;;;;;;5050997;28;20274;-70
2021/12/07 14:01:25;;;;;;;6.32;2.80;;;6.00;99.90;;;;;;5050639;28;20293;-70
2021/12/07 14:03:54;;;;;;;8.65;2.88;;;5.90;99.90;;;;;;5051115;28;20223;-70
2021/12/07 14:06:22;;;;;;;5.95;2.53;;;5.90;99.90;;;;;;5051065;28;20219;-70
2021/12/07 14:08:51;;;;;;;3.47;1.90;;;6.00;99.90;;;;;;5051207;28;20684;-71
2021/12/07 14:11:20;;;;;;;4.72;2.30;;;6.00;99.90;;;;;;5050854;28;20569;-69
2021/12/07 14:13:50;;;;;;;5.85;2.92;;;5.90;99.90;;;;;;5065201;28;20238;-70
2021/12/07 14:16:24;;;;;;;6.13;2.30;;;5.90;99.90;;;;;;5071001;28;20235;-69
2021/12/07 14:18:53;;;;;;;4.80;2.45;;;5.90;99.90;;;;;;5071106;28;20294;-69
2021/12/07 14:21:21;;;;;;;7.97;2.42;;;5.80;99.90;;;;;;5070271;28;20258;-69
2021/12/07 14:23:57;;;;;;;7.78;2.80;;;5.90;99.90;;;;;;5059132;28;20579;-68
2021/12/07 14:26:26;;;;;;;6.05;3.28;;;5.80;99.90;;;;;;5050873;28;20199;-69
2021/12/07 14:28:58;;;;;;;12.85;3.47;;;5.80;99.90;;;;;;5051080;28;20192;-68
2021/12/07 14:31:28;;;;;;;6.90;2.65;;;5.70;99.90;;;;;;5050774;28;20238;-68
2021/12/07 14:33:59;;;;;;;5.65;2.15;;;5.70;99.90;;;;;;5050814;28;20212;-70
2021/12/07 14:36:29;;;;;;;7.78;3.45;;;5.70;99.90;;;;;;5052687;28;20730;-70
2021/12/07 14:39:01;;;;;;;6.30;2.67;;;5.70;99.90;;;;;;5071068;28;20223;-70